RJSC/GAJ METAR and TAF weather

Enter ICAO airport designator
Station Type Date Time Source
RJSC METAR 2021/03/06 04:00 UTC NOAA

RJSC 060400Z 01023KT 9999 FEW025 SCT050 BKN070 04/00 Q1019


Station Type Date Time Source
RJSC Decoded METAR 2021/03/06 04:00 UTC NOAA

Yamagata Airport, Japan (RJSC) 38-25N 140-22E 108M
Mar 05, 2021 - 11:00 PM EST / 2021.03.06 0400 UTC
Wind: from the N (010 degrees) at 26 MPH (23 KT):0
Visibility: greater than 7 mile(s):0
Sky conditions: mostly cloudy
Temperature: 39 F (4 C)
Dew Point: 32 F (0 C)
Relative Humidity: 75%
Pressure (altimeter): 30.09 in. Hg (1019 hPa)
ob: RJSC 060400Z 01023KT 9999 FEW025 SCT050 BKN070 04/00 Q1019
cycle: 4

Station Type Date Time Source
RJSC TAF UTC NOAA

Error!

Example: see airport list